S/y Lumikki — OG9168 — position and weather

sailwx.info

Track history (hours):
 
Tides and Currents Weather Stations Pressure Air Temp Water Temp Dewpoint Dewpoint Depression Visibility Wind Speed Wind Dir Waves Ship Positions

S/y Lumikki

Last reported at 2018-Jun-09 18:32 UTC. Time now 2018-Jun-23 16:05 UTC.
Position N 37°06' W 024°13'.
Warning: this ship's position is 13 days out of date.

Length 15 m.

Type: Sailing vessel. MMSI: 230980540.

Date/timePositionNaut miles runAvg speedWind from/ knotsBaromVisibWave heightAir tempDewpointWater temp
2018-Jun-09 18:32N 37°06' W 024°13'0 6.8
2018-Jun-09 18:29N 37°05' W 024°14'3 7.0
2018-Jun-09 18:00N 37°04' W 024°18'3 7.0
2018-Jun-09 17:30N 37°03' W 024°22'3 6.7
2018-Jun-09 17:00N 37°02' W 024°26'3 7.0
2018-Jun-09 16:30N 37°01' W 024°30'4 7.1
2018-Jun-09 16:00N 36°59' W 024°34'3 6.6
2018-Jun-09 15:30N 36°58' W 024°38'7 7.5
2018-Jun-09 14:30N 36°57' W 024°47'4 7.5
2018-Jun-09 14:00N 36°56' W 024°52'4 7.6
2018-Jun-09 13:30N 36°56' W 024°56'4 7.7
2018-Jun-09 12:57N 36°55' W 025°02'3 6.5
2018-Jun-09 12:30N 36°55' W 025°05'3 6.6
2018-Jun-09 12:00N 36°56' W 025°09'0 0.7
2018-Jun-09 11:30N 36°56' W 025°09'0 0.5
2018-Jun-09 11:00N 36°57' W 025°09'0 0.0
2018-Jun-09 10:30N 36°57' W 025°09'0 0.0
2018-Jun-09 10:00N 36°57' W 025°09'0 0.0
2018-Jun-09 09:24N 36°57' W 025°09'0 0.0
2018-Jun-09 09:00N 36°57' W 025°09'0 0.0
2018-Jun-09 08:30N 36°57' W 025°09'0 0.0
2018-Jun-09 08:00N 36°57' W 025°09'0 0.0
2018-Jun-09 07:30N 36°57' W 025°09'0 0.0
2018-Jun-09 07:00N 36°57' W 025°09'0 0.0
2018-Jun-09 06:30N 36°57' W 025°09'0 0.0
2018-Jun-09 06:00N 36°57' W 025°09'0 0.0
2018-Jun-09 05:27N 36°57' W 025°09'0 0.0
2018-Jun-09 05:00N 36°57' W 025°09'0 0.0
2018-Jun-09 04:24N 36°57' W 025°09'0 0.0
2018-Jun-09 04:00N 36°57' W 025°09'0 0.0
2018-Jun-09 03:30N 36°57' W 025°09'0 0.0
2018-Jun-09 03:00N 36°57' W 025°09'0 0.0
2018-Jun-09 02:30N 36°57' W 025°09'0 0.0
2018-Jun-09 02:00N 36°57' W 025°09'0 0.0
2018-Jun-09 01:30N 36°57' W 025°09'0 0.0
2018-Jun-09 00:57N 36°57' W 025°09'0 0.0
2018-Jun-09 00:30N 36°57' W 025°09'0 0.0
2018-Jun-09 00:00N 36°57' W 025°09'0 0.0
2018-Jun-08 23:30N 36°57' W 025°09'0 0.0
2018-Jun-08 23:00N 36°57' W 025°09'0 0.0
2018-Jun-08 22:30N 36°57' W 025°09'0 0.0
2018-Jun-08 21:57N 36°57' W 025°09'0 0.0
2018-Jun-08 21:30N 36°57' W 025°09'0 0.0
2018-Jun-08 21:00N 36°57' W 025°09'0 0.0
2018-Jun-08 20:30N 36°57' W 025°09'0 0.0
2018-Jun-08 20:00N 36°57' W 025°09'0 0.0
2018-Jun-08 19:30N 36°57' W 025°09'0 0.0
2018-Jun-08 19:00N 36°57' W 025°09'0 0.0
2018-Jun-08 18:30N 36°57' W 025°09'0 0.0
2018-Jun-08 18:00N 36°57' W 025°09'0 0.0
2018-Jun-08 17:30N 36°57' W 025°09'0 0.0
2018-Jun-08 17:00N 36°57' W 025°09'0 0.0
2018-Jun-08 16:30N 36°57' W 025°09'0 0.0
2018-Jun-08 16:00N 36°57' W 025°09'0 0.0
2018-Jun-08 15:30N 36°57' W 025°09'0 0.0
2018-Jun-08 15:00N 36°57' W 025°09'0 0.0
2018-Jun-08 14:30N 36°57' W 025°09'0 0.0
2018-Jun-08 14:00N 36°57' W 025°09'0 0.0
2018-Jun-08 13:30N 36°57' W 025°09'0 0.0
2018-Jun-08 13:00N 36°57' W 025°09'0 0.0
2018-Jun-08 12:30N 36°57' W 025°09'0 0.0
2018-Jun-08 12:00N 36°57' W 025°09'0 0.0
2018-Jun-08 11:30N 36°57' W 025°09'0 0.0
2018-Jun-08 11:00N 36°57' W 025°09'0 0.0
2018-Jun-08 10:30N 36°57' W 025°09'0 0.0
2018-Jun-08 10:00N 36°57' W 025°09'0 0.0
2018-Jun-08 09:30N 36°57' W 025°09'0 0.0
2018-Jun-08 09:00N 36°57' W 025°09'0 0.0
2018-Jun-08 08:30N 36°57' W 025°09'0 0.0
2018-Jun-08 08:00N 36°57' W 025°09'0 0.0
2018-Jun-08 07:30N 36°57' W 025°09'0 0.0
2018-Jun-08 06:57N 36°57' W 025°09'0 0.0
2018-Jun-08 06:30N 36°57' W 025°09'0 0.0
2018-Jun-08 06:00N 36°57' W 025°09'0 0.0
2018-Jun-08 05:30N 36°57' W 025°09'0 0.0
2018-Jun-08 05:00N 36°57' W 025°09'0 0.0
2018-Jun-08 04:30N 36°57' W 025°09'0 0.0
2018-Jun-08 04:00N 36°57' W 025°09'0 0.0
2018-Jun-08 03:30N 36°57' W 025°09'0 0.0
2018-Jun-08 03:00N 36°57' W 025°09'0 0.0
2018-Jun-08 02:30N 36°57' W 025°09'0 0.0
2018-Jun-08 02:00N 36°57' W 025°09'0 0.0
2018-Jun-08 01:30N 36°57' W 025°09'0 0.0
2018-Jun-08 01:00N 36°57' W 025°09'0 0.0
2018-Jun-08 00:30N 36°57' W 025°09'0 0.0
2018-Jun-08 00:00N 36°57' W 025°09'0 0.0
2018-Jun-07 23:30N 36°57' W 025°09'0 0.0
2018-Jun-07 23:00N 36°57' W 025°09'0 0.0
2018-Jun-07 22:30N 36°57' W 025°09'0 0.0
2018-Jun-07 22:00N 36°57' W 025°09'0 0.0
2018-Jun-07 21:30N 36°57' W 025°09'0 0.0
2018-Jun-07 21:00N 36°57' W 025°09'0 0.0
2018-Jun-07 20:30N 36°57' W 025°09'0 0.0
2018-Jun-07 20:00N 36°57' W 025°09'0 0.0
2018-Jun-07 19:30N 36°57' W 025°09'0 0.0
2018-Jun-07 19:00N 36°57' W 025°09'0 0.0
2018-Jun-07 18:30N 36°57' W 025°09'0 0.0
2018-Jun-07 18:00N 36°57' W 025°09'0 0.0
2018-Jun-07 17:30N 36°57' W 025°09'0 0.0
2018-Jun-07 17:00N 36°57' W 025°09'1 1.5
2018-Jun-07 16:30N 36°56' W 025°09'3 6.0
2018-Jun-07 16:00N 36°58' W 025°12'3 6.5
2018-Jun-07 15:30N 37°01' W 025°14'3 6.3
2018-Jun-07 15:00N 37°03' W 025°16'3 6.3
2018-Jun-07 14:30N 37°06' W 025°18'3 6.4
2018-Jun-07 14:00N 37°09' W 025°20'3 6.5
2018-Jun-07 13:30N 37°12' W 025°21'3 6.7
2018-Jun-07 13:00N 37°15' W 025°23'3 6.6
2018-Jun-07 12:30N 37°18' W 025°25'3 6.6
2018-Jun-07 12:00N 37°21' W 025°27'3 6.5
2018-Jun-07 11:30N 37°24' W 025°28'3 6.4
2018-Jun-07 11:00N 37°27' W 025°30'3 6.6
2018-Jun-07 10:30N 37°30' W 025°31'3 6.7
2018-Jun-07 10:00N 37°33' W 025°33'3 6.8
2018-Jun-07 09:30N 37°36' W 025°35'3 6.9
2018-Jun-07 09:00N 37°39' W 025°37'3 6.9
2018-Jun-07 08:30N 37°42' W 025°39'2 4.2
2018-Jun-07 07:58N 37°44' W 025°40'0 0.0
2018-Jun-07 07:28N 37°44' W 025°40'0 0.0
2018-Jun-07 06:58N 37°44' W 025°40'0 0.0
2018-Jun-07 06:28N 37°44' W 025°40'0 0.0
2018-Jun-07 05:58N 37°44' W 025°40'0 0.0
2018-Jun-07 05:28N 37°44' W 025°40'0 0.0
2018-Jun-07 04:58N 37°44' W 025°40'0 0.0
2018-Jun-07 04:25N 37°44' W 025°40'0 0.0
2018-Jun-07 03:58N 37°44' W 025°40'0 0.0
2018-Jun-07 03:28N 37°44' W 025°40'0 0.0
2018-Jun-07 02:58N 37°44' W 025°40'0 0.0
2018-Jun-07 02:28N 37°44' W 025°40'0 0.0
2018-Jun-07 01:58N 37°44' W 025°40'0 0.0
2018-Jun-07 01:28N 37°44' W 025°40'0 0.0
2018-Jun-07 00:58N 37°44' W 025°40'0 0.0
2018-Jun-07 00:28N 37°44' W 025°40'0 0.0
2018-Jun-06 23:58N 37°44' W 025°40'0 0.0
2018-Jun-06 23:28N 37°44' W 025°40'0 0.0
2018-Jun-06 22:58N 37°44' W 025°40'0 0.0
2018-Jun-06 22:28N 37°44' W 025°40'0 0.0
2018-Jun-06 21:58N 37°44' W 025°40'0 0.0
2018-Jun-06 21:28N 37°44' W 025°40'0 0.0
2018-Jun-06 20:58N 37°44' W 025°40'0 0.0
2018-Jun-06 20:28N 37°44' W 025°40'0 0.0
2018-Jun-06 19:58N 37°44' W 025°40'0 0.0
2018-Jun-06 19:28N 37°44' W 025°40'0 0.0
2018-Jun-06 18:58N 37°44' W 025°40'0 0.0
2018-Jun-06 18:28N 37°44' W 025°40'0 0.0
2018-Jun-06 17:58N 37°44' W 025°40'0 0.0
2018-Jun-06 17:28N 37°44' W 025°40'0 0.0
2018-Jun-06 16:58N 37°44' W 025°40'0 0.0
2018-Jun-06 16:28N 37°44' W 025°40'0 0.0
2018-Jun-06 15:58N 37°44' W 025°40'0 0.0
2018-Jun-06 15:28N 37°44' W 025°40'0 0.0
2018-Jun-06 14:58N 37°44' W 025°40'0 0.0
2018-Jun-06 14:28N 37°44' W 025°40'0 0.0
2018-Jun-06 13:58N 37°44' W 025°40'0 0.0
2018-Jun-06 13:28N 37°44' W 025°40'0 0.0
2018-Jun-06 12:58N 37°44' W 025°40'0 0.0
2018-Jun-06 12:28N 37°44' W 025°40'0 0.0
2018-Jun-06 11:58N 37°44' W 025°40'0 0.0
2018-Jun-06 11:28N 37°44' W 025°40'0 0.0
2018-Jun-06 10:58N 37°44' W 025°40'0 0.0
2018-Jun-06 10:28N 37°44' W 025°40'0 0.0
2018-Jun-06 09:58N 37°44' W 025°40'0 0.0
2018-Jun-06 09:28N 37°44' W 025°40'0 0.0
2018-Jun-06 08:55N 37°44' W 025°40'0 0.0
2018-Jun-06 08:28N 37°44' W 025°40'0 0.0
2018-Jun-06 07:58N 37°44' W 025°40'0 0.0
2018-Jun-06 07:28N 37°44' W 025°40'0 0.0
2018-Jun-06 06:58N 37°44' W 025°40'0 0.0
2018-Jun-06 06:28N 37°44' W 025°40'0 0.0
2018-Jun-06 05:58N 37°44' W 025°40'0 0.0
2018-Jun-06 05:28N 37°44' W 025°40'0 0.0
2018-Jun-06 04:58N 37°44' W 025°40'0 0.0
2018-Jun-06 04:28N 37°44' W 025°40'0 0.0
2018-Jun-06 03:58N 37°44' W 025°40'0 0.0
2018-Jun-06 03:28N 37°44' W 025°40'0 0.0
2018-Jun-06 02:58N 37°44' W 025°40'0 0.0
2018-Jun-06 02:28N 37°44' W 025°40'0 0.0
2018-Jun-06 01:58N 37°44' W 025°40'0 0.0
2018-Jun-06 01:28N 37°44' W 025°40'0 0.0
2018-Jun-06 00:58N 37°44' W 025°40'0 0.0
2018-Jun-06 00:28N 37°44' W 025°40'0 0.0
2018-Jun-05 23:58N 37°44' W 025°40'0 0.0
2018-Jun-05 23:28N 37°44' W 025°40'0 0.0
2018-Jun-05 22:55N 37°44' W 025°40'0 0.0
2018-Jun-05 22:28N 37°44' W 025°40'0 0.0
2018-Jun-05 21:58N 37°44' W 025°40'0 0.0
2018-Jun-05 21:28N 37°44' W 025°40'0 0.0
2018-Jun-05 20:58N 37°44' W 025°40'0 0.0
2018-Jun-05 20:28N 37°44' W 025°40'0 0.0
2018-Jun-05 19:58N 37°44' W 025°40'0 0.0
2018-Jun-05 19:28N 37°44' W 025°40'0 0.0
2018-Jun-05 18:58N 37°44' W 025°40'0 0.0
2018-Jun-05 18:28N 37°44' W 025°40'0 0.0
2018-Jun-05 17:58N 37°44' W 025°40'0 0.0
2018-Jun-05 17:28N 37°44' W 025°40'0 0.0
2018-Jun-05 16:58N 37°44' W 025°40'0 0.0
2018-Jun-05 16:28N 37°44' W 025°40'0 0.0
2018-Jun-05 15:58N 37°44' W 025°40'0 0.0
2018-Jun-05 15:28N 37°44' W 025°40'0 0.0
2018-Jun-05 14:58N 37°44' W 025°40'0 0.0
2018-Jun-05 14:28N 37°44' W 025°40'0 0.0
2018-Jun-05 13:58N 37°44' W 025°40'0 0.0
2018-Jun-05 13:28N 37°44' W 025°40'0 0.0
2018-Jun-05 12:58N 37°44' W 025°40'0 0.0
2018-Jun-05 12:28N 37°44' W 025°40'0 0.0
2018-Jun-05 11:58N 37°44' W 025°40'0 0.0
2018-Jun-05 11:28N 37°44' W 025°40'0 0.0
2018-Jun-05 10:58N 37°44' W 025°40'0 0.0
2018-Jun-05 10:28N 37°44' W 025°40'0 0.0
2018-Jun-05 09:58N 37°44' W 025°40'0 0.0
2018-Jun-05 09:28N 37°44' W 025°40'0 0.0
2018-Jun-05 08:58N 37°44' W 025°40'0 0.0
2018-Jun-05 08:28N 37°44' W 025°40'1 1.2
2018-Jun-05 08:00N 37°44' W 025°40'3 6.8
2018-Jun-05 07:30N 37°44' W 025°44'4 6.9
2018-Jun-05 07:00N 37°46' W 025°48'2 3.8
2018-Jun-05 06:31N 37°47' W 025°50'2 4.7
2018-Jun-05 06:00N 37°48' W 025°52'3 6.4
2018-Jun-05 05:30N 37°50' W 025°56'4 7.3
2018-Jun-05 05:01N 37°52' W 025°60'4 7.9
2018-Jun-05 04:30N 37°54' W 026°04'4 8.4
2018-Jun-05 04:00N 37°57' W 026°08'4 8.4
2018-Jun-05 03:31N 37°60' W 026°12'4 8.9
2018-Jun-05 03:01N 38°03' W 026°16'5 9.3
2018-Jun-05 02:30N 38°06' W 026°20'5 9.4
2018-Jun-05 02:00N 38°09' W 026°25'4 8.5
2018-Jun-05 01:31N 38°11' W 026°29'  
2018-Jun-02 13:15N 38°31' W 027°50'2 6.0
2018-Jun-02 12:57N 38°32' W 027°52'3 6.5
2018-Jun-02 12:30N 38°33' W 027°56'3 6.7
2018-Jun-02 12:00N 38°34' W 027°60'3 6.0
2018-Jun-02 11:30N 38°35' W 028°03'3 6.1
2018-Jun-02 11:00N 38°35' W 028°07'3 6.0
2018-Jun-02 10:30N 38°34' W 028°11'3 5.7
2018-Jun-02 10:00N 38°34' W 028°15'3 6.6
2018-Jun-02 09:30N 38°34' W 028°19'4 7.2
2018-Jun-02 09:00N 38°34' W 028°23'3 6.8
2018-Jun-02 08:30N 38°34' W 028°28'2 4.6
2018-Jun-02 08:00N 38°34' W 028°31'3 6.0
2018-Jun-02 07:30N 38°33' W 028°34'3 5.3
2018-Jun-02 06:59N 38°32' W 028°37'0 0.0
2018-Jun-02 06:29N 38°32' W 028°37'0 0.0
2018-Jun-02 05:59N 38°32' W 028°37'0 0.0
2018-Jun-02 05:29N 38°32' W 028°37'0 0.0
2018-Jun-02 04:59N 38°32' W 028°37'0 0.0
2018-Jun-02 04:29N 38°32' W 028°37'0 0.0
2018-Jun-02 03:59N 38°32' W 028°37'0 0.0
2018-Jun-02 03:29N 38°32' W 028°37'0 0.0
2018-Jun-02 02:59N 38°32' W 028°37'0 0.0
2018-Jun-02 02:29N 38°32' W 028°37'0 0.0
2018-Jun-02 01:59N 38°32' W 028°37'0 0.0
2018-Jun-02 01:29N 38°32' W 028°37'0 0.0
2018-Jun-02 00:59N 38°32' W 028°37'0 0.0
2018-Jun-02 00:29N 38°32' W 028°37'0 0.0
2018-Jun-01 23:59N 38°32' W 028°37'0 0.0
2018-Jun-01 23:29N 38°32' W 028°37'0 0.0
2018-Jun-01 22:59N 38°32' W 028°37'0 0.0
2018-Jun-01 22:29N 38°32' W 028°37'0 0.0
2018-Jun-01 21:59N 38°32' W 028°37'0 0.0
2018-Jun-01 21:29N 38°32' W 028°37'0 0.0
2018-Jun-01 20:59N 38°32' W 028°37'0 0.0
2018-Jun-01 20:29N 38°32' W 028°37'0 0.0
2018-Jun-01 19:59N 38°32' W 028°37'0 0.0
2018-Jun-01 19:29N 38°32' W 028°37'0 0.0
2018-Jun-01 18:59N 38°32' W 028°37'0 0.0
2018-Jun-01 18:29N 38°32' W 028°37'0 0.0
2018-Jun-01 17:59N 38°32' W 028°37'0 0.0
2018-Jun-01 17:29N 38°32' W 028°37'0 0.0
2018-Jun-01 16:59N 38°32' W 028°37'0 0.0
2018-Jun-01 16:29N 38°32' W 028°37'0 0.0
2018-Jun-01 15:59N 38°32' W 028°37'0 0.0
2018-Jun-01 15:29N 38°32' W 028°37'0 0.0
2018-Jun-01 14:59N 38°32' W 028°37'0 0.0
2018-Jun-01 14:29N 38°32' W 028°37'0 0.0
2018-Jun-01 13:59N 38°32' W 028°37'0 0.0
2018-Jun-01 13:29N 38°32' W 028°37'0 0.0
2018-Jun-01 12:59N 38°32' W 028°37'0 0.0
2018-Jun-01 12:29N 38°32' W 028°37'0 0.0
2018-Jun-01 11:59N 38°32' W 028°37'0 0.0
2018-Jun-01 11:29N 38°32' W 028°37'0 0.0
2018-Jun-01 10:56N 38°32' W 028°37'0 0.0
2018-Jun-01 10:29N 38°32' W 028°37'0 0.0
2018-Jun-01 09:59N 38°32' W 028°37'0 0.0
2018-Jun-01 09:29N 38°32' W 028°37'0 0.0
2018-Jun-01 08:56N 38°32' W 028°37'0 0.0
2018-Jun-01 08:29N 38°32' W 028°37'0 0.0
2018-Jun-01 07:59N 38°32' W 028°37'0 0.0
2018-Jun-01 07:29N 38°32' W 028°37'0 0.0
2018-Jun-01 06:59N 38°32' W 028°37'0 0.0
2018-Jun-01 06:29N 38°32' W 028°37'0 0.0
2018-Jun-01 05:59N 38°32' W 028°37'0 0.0
2018-Jun-01 05:29N 38°32' W 028°37'0 0.0
2018-Jun-01 04:59N 38°32' W 028°37'0 0.0
2018-Jun-01 04:29N 38°32' W 028°37'0 0.0
2018-Jun-01 03:59N 38°32' W 028°37'0 0.0
2018-Jun-01 03:29N 38°32' W 028°37'0 0.0
2018-Jun-01 02:59N 38°32' W 028°37'0 0.0
2018-Jun-01 02:29N 38°32' W 028°37'0 0.0
2018-Jun-01 01:59N 38°32' W 028°37'0 0.0
2018-Jun-01 01:29N 38°32' W 028°37'0 0.0
2018-Jun-01 00:59N 38°32' W 028°37'0 0.0
2018-Jun-01 00:29N 38°32' W 028°37'0 0.0
2018-May-31 23:59N 38°32' W 028°37'0 0.0
2018-May-31 23:29N 38°32' W 028°37'0 0.0
2018-May-31 22:59N 38°32' W 028°37'0 0.0
2018-May-31 22:29N 38°32' W 028°37'0 0.0
2018-May-31 21:59N 38°32' W 028°37'0 0.0
2018-May-31 21:29N 38°32' W 028°37'0 0.0
2018-May-31 20:59N 38°32' W 028°37'0 0.0
2018-May-31 20:29N 38°32' W 028°37'0 0.0
2018-May-31 19:59N 38°32' W 028°37'0 0.0
2018-May-31 19:29N 38°32' W 028°37'0 0.0
2018-May-31 18:47N 38°32' W 028°37'0 0.0
2018-May-31 18:29N 38°32' W 028°37'0 0.0
2018-May-31 17:59N 38°32' W 028°37'0 0.0
2018-May-31 17:29N 38°32' W 028°37'0 0.0
2018-May-31 16:56N 38°32' W 028°37'0 0.0
2018-May-31 16:29N 38°32' W 028°37'0 0.0
2018-May-31 15:59N 38°32' W 028°37'0 0.0
2018-May-31 15:26N 38°32' W 028°37'0 0.0
2018-May-31 14:59N 38°32' W 028°37'0 0.0
2018-May-31 14:29N 38°32' W 028°37'0 0.0
2018-May-31 13:59N 38°32' W 028°37'0 0.0
2018-May-31 13:29N 38°32' W 028°37'0 0.0
2018-May-31 12:59N 38°32' W 028°37'0 0.0
2018-May-31 12:29N 38°32' W 028°37'0 0.0
2018-May-31 11:59N 38°32' W 028°37'0 0.0
2018-May-31 11:29N 38°32' W 028°37'0 0.0
2018-May-31 10:59N 38°32' W 028°37'0 0.0
2018-May-31 10:29N 38°32' W 028°37'0 0.0
2018-May-31 09:59N 38°32' W 028°37'0 0.0
2018-May-31 09:29N 38°32' W 028°37'0 0.0
2018-May-31 08:59N 38°32' W 028°37'0 0.0
2018-May-31 08:29N 38°32' W 028°37'0 0.0
2018-May-31 07:59N 38°32' W 028°37'0 0.0
2018-May-31 07:29N 38°32' W 028°37'0 0.0
2018-May-31 06:59N 38°32' W 028°37'0 0.0
2018-May-31 06:29N 38°32' W 028°37'0 0.0
2018-May-31 05:59N 38°32' W 028°37'0 0.0
2018-May-31 05:29N 38°32' W 028°37'0 0.0
2018-May-31 04:59N 38°32' W 028°37'0 0.0
2018-May-31 04:29N 38°32' W 028°37'0 0.0
2018-May-31 03:59N 38°32' W 028°38'0 0.0
2018-May-31 03:29N 38°32' W 028°37'0 0.0
2018-May-31 02:59N 38°32' W 028°37'0 0.0
2018-May-31 02:29N 38°32' W 028°37'0 0.0
2018-May-31 01:59N 38°32' W 028°37'0 0.0
2018-May-31 01:29N 38°32' W 028°37'0 0.0
2018-May-31 00:59N 38°32' W 028°37'0 0.0
2018-May-31 00:29N 38°32' W 028°37'0 0.0
2018-May-30 23:59N 38°32' W 028°37'0 0.0
2018-May-30 23:29N 38°32' W 028°37'0 0.0
2018-May-30 22:59N 38°32' W 028°37'0 0.0
2018-May-30 22:29N 38°32' W 028°37'0 0.0
2018-May-30 21:56N 38°32' W 028°37'0 0.0
2018-May-30 21:29N 38°32' W 028°37'0 0.0
2018-May-30 20:59N 38°32' W 028°37'0 0.0
2018-May-30 20:29N 38°32' W 028°37'0 0.0
2018-May-30 19:59N 38°32' W 028°37'0 0.0
2018-May-30 19:29N 38°32' W 028°37'0 0.0
2018-May-30 18:59N 38°32' W 028°37'  
Track history (hours):
 
Tides and Currents Weather Stations Pressure Air Temp Water Temp Dewpoint Dewpoint Depression Visibility Wind Speed Wind Dir Waves Ship Positions

S/y Lumikki

Last reported at 2018-Jun-09 18:32 UTC. Time now 2018-Jun-23 16:05 UTC.
Position N 37°06' W 024°13'.
Warning: this ship's position is 13 days out of date.

Length 15 m.

Type: Sailing vessel. MMSI: 230980540.

Date/timePositionNaut miles runAvg speedWind from/ knotsBaromVisibWave heightAir tempDewpointWater temp
2018-Jun-09 18:32N 37°06' W 024°13'0 6.8
2018-Jun-09 18:29N 37°05' W 024°14'3 7.0
2018-Jun-09 18:00N 37°04' W 024°18'3 7.0
2018-Jun-09 17:30N 37°03' W 024°22'3 6.7
2018-Jun-09 17:00N 37°02' W 024°26'3 7.0
2018-Jun-09 16:30N 37°01' W 024°30'4 7.1
2018-Jun-09 16:00N 36°59' W 024°34'3 6.6
2018-Jun-09 15:30N 36°58' W 024°38'7 7.5
2018-Jun-09 14:30N 36°57' W 024°47'4 7.5
2018-Jun-09 14:00N 36°56' W 024°52'4 7.6
2018-Jun-09 13:30N 36°56' W 024°56'4 7.7
2018-Jun-09 12:57N 36°55' W 025°02'3 6.5
2018-Jun-09 12:30N 36°55' W 025°05'3 6.6
2018-Jun-09 12:00N 36°56' W 025°09'0 0.7
2018-Jun-09 11:30N 36°56' W 025°09'0 0.5
2018-Jun-09 11:00N 36°57' W 025°09'0 0.0
2018-Jun-09 10:30N 36°57' W 025°09'0 0.0
2018-Jun-09 10:00N 36°57' W 025°09'0 0.0
2018-Jun-09 09:24N 36°57' W 025°09'0 0.0
2018-Jun-09 09:00N 36°57' W 025°09'0 0.0
2018-Jun-09 08:30N 36°57' W 025°09'0 0.0
2018-Jun-09 08:00N 36°57' W 025°09'0 0.0
2018-Jun-09 07:30N 36°57' W 025°09'0 0.0
2018-Jun-09 07:00N 36°57' W 025°09'0 0.0
2018-Jun-09 06:30N 36°57' W 025°09'0 0.0
2018-Jun-09 06:00N 36°57' W 025°09'0 0.0
2018-Jun-09 05:27N 36°57' W 025°09'0 0.0
2018-Jun-09 05:00N 36°57' W 025°09'0 0.0
2018-Jun-09 04:24N 36°57' W 025°09'0 0.0
2018-Jun-09 04:00N 36°57' W 025°09'0 0.0
2018-Jun-09 03:30N 36°57' W 025°09'0 0.0
2018-Jun-09 03:00N 36°57' W 025°09'0 0.0
2018-Jun-09 02:30N 36°57' W 025°09'0 0.0
2018-Jun-09 02:00N 36°57' W 025°09'0 0.0
2018-Jun-09 01:30N 36°57' W 025°09'0 0.0
2018-Jun-09 00:57N 36°57' W 025°09'0 0.0
2018-Jun-09 00:30N 36°57' W 025°09'0 0.0
2018-Jun-09 00:00N 36°57' W 025°09'0 0.0
2018-Jun-08 23:30N 36°57' W 025°09'0 0.0
2018-Jun-08 23:00N 36°57' W 025°09'0 0.0
2018-Jun-08 22:30N 36°57' W 025°09'0 0.0
2018-Jun-08 21:57N 36°57' W 025°09'0 0.0
2018-Jun-08 21:30N 36°57' W 025°09'0 0.0
2018-Jun-08 21:00N 36°57' W 025°09'0 0.0
2018-Jun-08 20:30N 36°57' W 025°09'0 0.0
2018-Jun-08 20:00N 36°57' W 025°09'0 0.0
2018-Jun-08 19:30N 36°57' W 025°09'0 0.0
2018-Jun-08 19:00N 36°57' W 025°09'0 0.0
2018-Jun-08 18:30N 36°57' W 025°09'0 0.0
2018-Jun-08 18:00N 36°57' W 025°09'0 0.0
2018-Jun-08 17:30N 36°57' W 025°09'0 0.0
2018-Jun-08 17:00N 36°57' W 025°09'0 0.0
2018-Jun-08 16:30N 36°57' W 025°09'0 0.0
2018-Jun-08 16:00N 36°57' W 025°09'0 0.0
2018-Jun-08 15:30N 36°57' W 025°09'0 0.0
2018-Jun-08 15:00N 36°57' W 025°09'0 0.0
2018-Jun-08 14:30N 36°57' W 025°09'0 0.0
2018-Jun-08 14:00N 36°57' W 025°09'0 0.0
2018-Jun-08 13:30N 36°57' W 025°09'0 0.0
2018-Jun-08 13:00N 36°57' W 025°09'0 0.0
2018-Jun-08 12:30N 36°57' W 025°09'0 0.0
2018-Jun-08 12:00N 36°57' W 025°09'0 0.0
2018-Jun-08 11:30N 36°57' W 025°09'0 0.0
2018-Jun-08 11:00N 36°57' W 025°09'0 0.0
2018-Jun-08 10:30N 36°57' W 025°09'0 0.0
2018-Jun-08 10:00N 36°57' W 025°09'0 0.0
2018-Jun-08 09:30N 36°57' W 025°09'0 0.0
2018-Jun-08 09:00N 36°57' W 025°09'0 0.0
2018-Jun-08 08:30N 36°57' W 025°09'0 0.0
2018-Jun-08 08:00N 36°57' W 025°09'0 0.0
2018-Jun-08 07:30N 36°57' W 025°09'0 0.0
2018-Jun-08 06:57N 36°57' W 025°09'0 0.0
2018-Jun-08 06:30N 36°57' W 025°09'0 0.0
2018-Jun-08 06:00N 36°57' W 025°09'0 0.0
2018-Jun-08 05:30N 36°57' W 025°09'0 0.0
2018-Jun-08 05:00N 36°57' W 025°09'0 0.0
2018-Jun-08 04:30N 36°57' W 025°09'0 0.0
2018-Jun-08 04:00N 36°57' W 025°09'0 0.0
2018-Jun-08 03:30N 36°57' W 025°09'0 0.0
2018-Jun-08 03:00N 36°57' W 025°09'0 0.0
2018-Jun-08 02:30N 36°57' W 025°09'0 0.0
2018-Jun-08 02:00N 36°57' W 025°09'0 0.0
2018-Jun-08 01:30N 36°57' W 025°09'0 0.0
2018-Jun-08 01:00N 36°57' W 025°09'0 0.0
2018-Jun-08 00:30N 36°57' W 025°09'0 0.0
2018-Jun-08 00:00N 36°57' W 025°09'0 0.0
2018-Jun-07 23:30N 36°57' W 025°09'0 0.0
2018-Jun-07 23:00N 36°57' W 025°09'0 0.0
2018-Jun-07 22:30N 36°57' W 025°09'0 0.0
2018-Jun-07 22:00N 36°57' W 025°09'0 0.0
2018-Jun-07 21:30N 36°57' W 025°09'0 0.0
2018-Jun-07 21:00N 36°57' W 025°09'0 0.0
2018-Jun-07 20:30N 36°57' W 025°09'0 0.0
2018-Jun-07 20:00N 36°57' W 025°09'0 0.0
2018-Jun-07 19:30N 36°57' W 025°09'0 0.0
2018-Jun-07 19:00N 36°57' W 025°09'0 0.0
2018-Jun-07 18:30N 36°57' W 025°09'0 0.0
2018-Jun-07 18:00N 36°57' W 025°09'0 0.0
2018-Jun-07 17:30N 36°57' W 025°09'0 0.0
2018-Jun-07 17:00N 36°57' W 025°09'1 1.5
2018-Jun-07 16:30N 36°56' W 025°09'3 6.0
2018-Jun-07 16:00N 36°58' W 025°12'3 6.5
2018-Jun-07 15:30N 37°01' W 025°14'3 6.3
2018-Jun-07 15:00N 37°03' W 025°16'3 6.3
2018-Jun-07 14:30N 37°06' W 025°18'3 6.4
2018-Jun-07 14:00N 37°09' W 025°20'3 6.5
2018-Jun-07 13:30N 37°12' W 025°21'3 6.7
2018-Jun-07 13:00N 37°15' W 025°23'3 6.6
2018-Jun-07 12:30N 37°18' W 025°25'3 6.6
2018-Jun-07 12:00N 37°21' W 025°27'3 6.5
2018-Jun-07 11:30N 37°24' W 025°28'3 6.4
2018-Jun-07 11:00N 37°27' W 025°30'3 6.6
2018-Jun-07 10:30N 37°30' W 025°31'3 6.7
2018-Jun-07 10:00N 37°33' W 025°33'3 6.8
2018-Jun-07 09:30N 37°36' W 025°35'3 6.9
2018-Jun-07 09:00N 37°39' W 025°37'3 6.9
2018-Jun-07 08:30N 37°42' W 025°39'2 4.2
2018-Jun-07 07:58N 37°44' W 025°40'0 0.0
2018-Jun-07 07:28N 37°44' W 025°40'0 0.0
2018-Jun-07 06:58N 37°44' W 025°40'0 0.0
2018-Jun-07 06:28N 37°44' W 025°40'0 0.0
2018-Jun-07 05:58N 37°44' W 025°40'0 0.0
2018-Jun-07 05:28N 37°44' W 025°40'0 0.0
2018-Jun-07 04:58N 37°44' W 025°40'0 0.0
2018-Jun-07 04:25N 37°44' W 025°40'0 0.0
2018-Jun-07 03:58N 37°44' W 025°40'0 0.0
2018-Jun-07 03:28N 37°44' W 025°40'0 0.0
2018-Jun-07 02:58N 37°44' W 025°40'0 0.0
2018-Jun-07 02:28N 37°44' W 025°40'0 0.0
2018-Jun-07 01:58N 37°44' W 025°40'0 0.0
2018-Jun-07 01:28N 37°44' W 025°40'0 0.0
2018-Jun-07 00:58N 37°44' W 025°40'0 0.0
2018-Jun-07 00:28N 37°44' W 025°40'0 0.0
2018-Jun-06 23:58N 37°44' W 025°40'0 0.0
2018-Jun-06 23:28N 37°44' W 025°40'0 0.0
2018-Jun-06 22:58N 37°44' W 025°40'0 0.0
2018-Jun-06 22:28N 37°44' W 025°40'0 0.0
2018-Jun-06 21:58N 37°44' W 025°40'0 0.0
2018-Jun-06 21:28N 37°44' W 025°40'0 0.0
2018-Jun-06 20:58N 37°44' W 025°40'0 0.0
2018-Jun-06 20:28N 37°44' W 025°40'0 0.0
2018-Jun-06 19:58N 37°44' W 025°40'0 0.0
2018-Jun-06 19:28N 37°44' W 025°40'0 0.0
2018-Jun-06 18:58N 37°44' W 025°40'0 0.0
2018-Jun-06 18:28N 37°44' W 025°40'0 0.0
2018-Jun-06 17:58N 37°44' W 025°40'0 0.0
2018-Jun-06 17:28N 37°44' W 025°40'0 0.0
2018-Jun-06 16:58N 37°44' W 025°40'0 0.0
2018-Jun-06 16:28N 37°44' W 025°40'0 0.0
2018-Jun-06 15:58N 37°44' W 025°40'0 0.0
2018-Jun-06 15:28N 37°44' W 025°40'0 0.0
2018-Jun-06 14:58N 37°44' W 025°40'0 0.0
2018-Jun-06 14:28N 37°44' W 025°40'0 0.0
2018-Jun-06 13:58N 37°44' W 025°40'0 0.0
2018-Jun-06 13:28N 37°44' W 025°40'0 0.0
2018-Jun-06 12:58N 37°44' W 025°40'0 0.0
2018-Jun-06 12:28N 37°44' W 025°40'0 0.0
2018-Jun-06 11:58N 37°44' W 025°40'0 0.0
2018-Jun-06 11:28N 37°44' W 025°40'0 0.0
2018-Jun-06 10:58N 37°44' W 025°40'0 0.0
2018-Jun-06 10:28N 37°44' W 025°40'0 0.0
2018-Jun-06 09:58N 37°44' W 025°40'0 0.0
2018-Jun-06 09:28N 37°44' W 025°40'0 0.0
2018-Jun-06 08:55N 37°44' W 025°40'0 0.0
2018-Jun-06 08:28N 37°44' W 025°40'0 0.0
2018-Jun-06 07:58N 37°44' W 025°40'0 0.0
2018-Jun-06 07:28N 37°44' W 025°40'0 0.0
2018-Jun-06 06:58N 37°44' W 025°40'0 0.0
2018-Jun-06 06:28N 37°44' W 025°40'0 0.0
2018-Jun-06 05:58N 37°44' W 025°40'0 0.0
2018-Jun-06 05:28N 37°44' W 025°40'0 0.0
2018-Jun-06 04:58N 37°44' W 025°40'0 0.0
2018-Jun-06 04:28N 37°44' W 025°40'0 0.0
2018-Jun-06 03:58N 37°44' W 025°40'0 0.0
2018-Jun-06 03:28N 37°44' W 025°40'0 0.0
2018-Jun-06 02:58N 37°44' W 025°40'0 0.0
2018-Jun-06 02:28N 37°44' W 025°40'0 0.0
2018-Jun-06 01:58N 37°44' W 025°40'0 0.0
2018-Jun-06 01:28N 37°44' W 025°40'0 0.0
2018-Jun-06 00:58N 37°44' W 025°40'0 0.0
2018-Jun-06 00:28N 37°44' W 025°40'0 0.0
2018-Jun-05 23:58N 37°44' W 025°40'0 0.0
2018-Jun-05 23:28N 37°44' W 025°40'0 0.0
2018-Jun-05 22:55N 37°44' W 025°40'0 0.0
2018-Jun-05 22:28N 37°44' W 025°40'0 0.0
2018-Jun-05 21:58N 37°44' W 025°40'0 0.0
2018-Jun-05 21:28N 37°44' W 025°40'0 0.0
2018-Jun-05 20:58N 37°44' W 025°40'0 0.0
2018-Jun-05 20:28N 37°44' W 025°40'0 0.0
2018-Jun-05 19:58N 37°44' W 025°40'0 0.0
2018-Jun-05 19:28N 37°44' W 025°40'0 0.0
2018-Jun-05 18:58N 37°44' W 025°40'0 0.0
2018-Jun-05 18:28N 37°44' W 025°40'0 0.0
2018-Jun-05 17:58N 37°44' W 025°40'0 0.0
2018-Jun-05 17:28N 37°44' W 025°40'0 0.0
2018-Jun-05 16:58N 37°44' W 025°40'0 0.0
2018-Jun-05 16:28N 37°44' W 025°40'0 0.0
2018-Jun-05 15:58N 37°44' W 025°40'0 0.0
2018-Jun-05 15:28N 37°44' W 025°40'0 0.0
2018-Jun-05 14:58N 37°44' W 025°40'0 0.0
2018-Jun-05 14:28N 37°44' W 025°40'0 0.0
2018-Jun-05 13:58N 37°44' W 025°40'0 0.0
2018-Jun-05 13:28N 37°44' W 025°40'0 0.0
2018-Jun-05 12:58N 37°44' W 025°40'0 0.0
2018-Jun-05 12:28N 37°44' W 025°40'0 0.0
2018-Jun-05 11:58N 37°44' W 025°40'0 0.0
2018-Jun-05 11:28N 37°44' W 025°40'0 0.0
2018-Jun-05 10:58N 37°44' W 025°40'0 0.0
2018-Jun-05 10:28N 37°44' W 025°40'0 0.0
2018-Jun-05 09:58N 37°44' W 025°40'0 0.0
2018-Jun-05 09:28N 37°44' W 025°40'0 0.0
2018-Jun-05 08:58N 37°44' W 025°40'0 0.0
2018-Jun-05 08:28N 37°44' W 025°40'1 1.2
2018-Jun-05 08:00N 37°44' W 025°40'3 6.8
2018-Jun-05 07:30N 37°44' W 025°44'4 6.9
2018-Jun-05 07:00N 37°46' W 025°48'2 3.8
2018-Jun-05 06:31N 37°47' W 025°50'2 4.7
2018-Jun-05 06:00N 37°48' W 025°52'3 6.4
2018-Jun-05 05:30N 37°50' W 025°56'4 7.3
2018-Jun-05 05:01N 37°52' W 025°60'4 7.9
2018-Jun-05 04:30N 37°54' W 026°04'4 8.4
2018-Jun-05 04:00N 37°57' W 026°08'4 8.4
2018-Jun-05 03:31N 37°60' W 026°12'4 8.9
2018-Jun-05 03:01N 38°03' W 026°16'5 9.3
2018-Jun-05 02:30N 38°06' W 026°20'5 9.4
2018-Jun-05 02:00N 38°09' W 026°25'4 8.5
2018-Jun-05 01:31N 38°11' W 026°29'  
2018-Jun-02 13:15N 38°31' W 027°50'2 6.0
2018-Jun-02 12:57N 38°32' W 027°52'3 6.5
2018-Jun-02 12:30N 38°33' W 027°56'3 6.7
2018-Jun-02 12:00N 38°34' W 027°60'3 6.0
2018-Jun-02 11:30N 38°35' W 028°03'3 6.1
2018-Jun-02 11:00N 38°35' W 028°07'3 6.0
2018-Jun-02 10:30N 38°34' W 028°11'3 5.7
2018-Jun-02 10:00N 38°34' W 028°15'3 6.6
2018-Jun-02 09:30N 38°34' W 028°19'4 7.2
2018-Jun-02 09:00N 38°34' W 028°23'3 6.8
2018-Jun-02 08:30N 38°34' W 028°28'2 4.6
2018-Jun-02 08:00N 38°34' W 028°31'3 6.0
2018-Jun-02 07:30N 38°33' W 028°34'3 5.3
2018-Jun-02 06:59N 38°32' W 028°37'0 0.0
2018-Jun-02 06:29N 38°32' W 028°37'0 0.0
2018-Jun-02 05:59N 38°32' W 028°37'0 0.0
2018-Jun-02 05:29N 38°32' W 028°37'0 0.0
2018-Jun-02 04:59N 38°32' W 028°37'0 0.0
2018-Jun-02 04:29N 38°32' W 028°37'0 0.0
2018-Jun-02 03:59N 38°32' W 028°37'0 0.0
2018-Jun-02 03:29N 38°32' W 028°37'0 0.0
2018-Jun-02 02:59N 38°32' W 028°37'0 0.0
2018-Jun-02 02:29N 38°32' W 028°37'0 0.0
2018-Jun-02 01:59N 38°32' W 028°37'0 0.0
2018-Jun-02 01:29N 38°32' W 028°37'0 0.0
2018-Jun-02 00:59N 38°32' W 028°37'0 0.0
2018-Jun-02 00:29N 38°32' W 028°37'0 0.0
2018-Jun-01 23:59N 38°32' W 028°37'0 0.0
2018-Jun-01 23:29N 38°32' W 028°37'0 0.0
2018-Jun-01 22:59N 38°32' W 028°37'0 0.0
2018-Jun-01 22:29N 38°32' W 028°37'0 0.0
2018-Jun-01 21:59N 38°32' W 028°37'0 0.0
2018-Jun-01 21:29N 38°32' W 028°37'0 0.0
2018-Jun-01 20:59N 38°32' W 028°37'0 0.0
2018-Jun-01 20:29N 38°32' W 028°37'0 0.0
2018-Jun-01 19:59N 38°32' W 028°37'0 0.0
2018-Jun-01 19:29N 38°32' W 028°37'0 0.0
2018-Jun-01 18:59N 38°32' W 028°37'0 0.0
2018-Jun-01 18:29N 38°32' W 028°37'0 0.0
2018-Jun-01 17:59N 38°32' W 028°37'0 0.0
2018-Jun-01 17:29N 38°32' W 028°37'0 0.0
2018-Jun-01 16:59N 38°32' W 028°37'0 0.0
2018-Jun-01 16:29N 38°32' W 028°37'0 0.0
2018-Jun-01 15:59N 38°32' W 028°37'0 0.0
2018-Jun-01 15:29N 38°32' W 028°37'0 0.0
2018-Jun-01 14:59N 38°32' W 028°37'0 0.0
2018-Jun-01 14:29N 38°32' W 028°37'0 0.0
2018-Jun-01 13:59N 38°32' W 028°37'0 0.0
2018-Jun-01 13:29N 38°32' W 028°37'0 0.0
2018-Jun-01 12:59N 38°32' W 028°37'0 0.0
2018-Jun-01 12:29N 38°32' W 028°37'0 0.0
2018-Jun-01 11:59N 38°32' W 028°37'0 0.0
2018-Jun-01 11:29N 38°32' W 028°37'0 0.0
2018-Jun-01 10:56N 38°32' W 028°37'0 0.0
2018-Jun-01 10:29N 38°32' W 028°37'0 0.0
2018-Jun-01 09:59N 38°32' W 028°37'0 0.0
2018-Jun-01 09:29N 38°32' W 028°37'0 0.0
2018-Jun-01 08:56N 38°32' W 028°37'0 0.0
2018-Jun-01 08:29N 38°32' W 028°37'0 0.0
2018-Jun-01 07:59N 38°32' W 028°37'0 0.0
2018-Jun-01 07:29N 38°32' W 028°37'0 0.0
2018-Jun-01 06:59N 38°32' W 028°37'0 0.0
2018-Jun-01 06:29N 38°32' W 028°37'0 0.0
2018-Jun-01 05:59N 38°32' W 028°37'0 0.0
2018-Jun-01 05:29N 38°32' W 028°37'0 0.0
2018-Jun-01 04:59N 38°32' W 028°37'0 0.0
2018-Jun-01 04:29N 38°32' W 028°37'0 0.0
2018-Jun-01 03:59N 38°32' W 028°37'0 0.0
2018-Jun-01 03:29N 38°32' W 028°37'0 0.0
2018-Jun-01 02:59N 38°32' W 028°37'0 0.0
2018-Jun-01 02:29N 38°32' W 028°37'0 0.0
2018-Jun-01 01:59N 38°32' W 028°37'0 0.0
2018-Jun-01 01:29N 38°32' W 028°37'0 0.0
2018-Jun-01 00:59N 38°32' W 028°37'0 0.0
2018-Jun-01 00:29N 38°32' W 028°37'0 0.0
2018-May-31 23:59N 38°32' W 028°37'0 0.0
2018-May-31 23:29N 38°32' W 028°37'0 0.0
2018-May-31 22:59N 38°32' W 028°37'0 0.0
2018-May-31 22:29N 38°32' W 028°37'0 0.0
2018-May-31 21:59N 38°32' W 028°37'0 0.0
2018-May-31 21:29N 38°32' W 028°37'0 0.0
2018-May-31 20:59N 38°32' W 028°37'0 0.0
2018-May-31 20:29N 38°32' W 028°37'0 0.0
2018-May-31 19:59N 38°32' W 028°37'0 0.0
2018-May-31 19:29N 38°32' W 028°37'0 0.0
2018-May-31 18:47N 38°32' W 028°37'0 0.0
2018-May-31 18:29N 38°32' W 028°37'0 0.0
2018-May-31 17:59N 38°32' W 028°37'0 0.0
2018-May-31 17:29N 38°32' W 028°37'0 0.0
2018-May-31 16:56N 38°32' W 028°37'0 0.0
2018-May-31 16:29N 38°32' W 028°37'0 0.0
2018-May-31 15:59N 38°32' W 028°37'0 0.0
2018-May-31 15:26N 38°32' W 028°37'0 0.0
2018-May-31 14:59N 38°32' W 028°37'0 0.0
2018-May-31 14:29N 38°32' W 028°37'0 0.0
2018-May-31 13:59N 38°32' W 028°37'0 0.0
2018-May-31 13:29N 38°32' W 028°37'0 0.0
2018-May-31 12:59N 38°32' W 028°37'0 0.0
2018-May-31 12:29N 38°32' W 028°37'0 0.0
2018-May-31 11:59N 38°32' W 028°37'0 0.0
2018-May-31 11:29N 38°32' W 028°37'0 0.0
2018-May-31 10:59N 38°32' W 028°37'0 0.0
2018-May-31 10:29N 38°32' W 028°37'0 0.0
2018-May-31 09:59N 38°32' W 028°37'0 0.0
2018-May-31 09:29N 38°32' W 028°37'0 0.0
2018-May-31 08:59N 38°32' W 028°37'0 0.0
2018-May-31 08:29N 38°32' W 028°37'0 0.0
2018-May-31 07:59N 38°32' W 028°37'0 0.0
2018-May-31 07:29N 38°32' W 028°37'0 0.0
2018-May-31 06:59N 38°32' W 028°37'0 0.0
2018-May-31 06:29N 38°32' W 028°37'0 0.0
2018-May-31 05:59N 38°32' W 028°37'0 0.0
2018-May-31 05:29N 38°32' W 028°37'0 0.0
2018-May-31 04:59N 38°32' W 028°37'0 0.0
2018-May-31 04:29N 38°32' W 028°37'0 0.0
2018-May-31 03:59N 38°32' W 028°38'0 0.0
2018-May-31 03:29N 38°32' W 028°37'0 0.0
2018-May-31 02:59N 38°32' W 028°37'0 0.0
2018-May-31 02:29N 38°32' W 028°37'0 0.0
2018-May-31 01:59N 38°32' W 028°37'0 0.0
2018-May-31 01:29N 38°32' W 028°37'0 0.0
2018-May-31 00:59N 38°32' W 028°37'0 0.0
2018-May-31 00:29N 38°32' W 028°37'0 0.0
2018-May-30 23:59N 38°32' W 028°37'0 0.0
2018-May-30 23:29N 38°32' W 028°37'0 0.0
2018-May-30 22:59N 38°32' W 028°37'0 0.0
2018-May-30 22:29N 38°32' W 028°37'0 0.0
2018-May-30 21:56N 38°32' W 028°37'0 0.0
2018-May-30 21:29N 38°32' W 028°37'0 0.0
2018-May-30 20:59N 38°32' W 028°37'0 0.0
2018-May-30 20:29N 38°32' W 028°37'0 0.0
2018-May-30 19:59N 38°32' W 028°37'0 0.0
2018-May-30 19:29N 38°32' W 028°37'0 0.0
2018-May-30 18:59N 38°32' W 028°37'  

Dump ship's entire track history